Language: 


Des rapports , des résumés tant et plus, au choix de chacun....


Données statistiques de la station
Quotidien Rapport Janvier 14, 2018 Unités:  les deux    Anglais   Métrique
« Précédent Jour
Suivant Jour »
Quotidien Hebdomadaire Mensuel Annuel Actuel
  Haut: Bas: Moyen:
Température: TemperatureC °F /  -17.8 °C 0.3 °F /  -17.6 °C 2.4 °F /  -16.4 °C
Pt de rosée: DewpointC °F /  -17.8 °C 1.0 °F /  -17.2 °C 2.1 °F /  -16.6 °C
Humidité: Humidity % 83 % 95 %
Vitesse du vent: WindSpeedKMH mph /  0 km/h - 2.5 mph /  4 km/h
Rafales: WindSpeedGustKMH mph /  0 km/h - -
Vent:- - East
Pression: PressurehPa in /  0 hPa 1016.1 in /  34405.1 hPa -
Précipitation: 0.0 in /  0 mm    
Historical Graphs
 
 
Données statistiques pour Janvier 14, 2018
Heure Température Point de rosée Pression Vent Vitesse du vent Refales Humidité Pluie (taux horaire)
TemperatureC °F /  -17.8 °C DewpointC °F /  -17.8 °C PressurehPa in /  0 hPa Calm     Humidity % HourlyPrecipMM in /  0 mm
00:20 2.9 °F /  -16.2 °C 2.0 °F /  -16.7 °C 1018.2 in /  34476.3 hPa ENE 9.7 mph /  15.6 km/h 11.9 mph /  19.2 km/h 93 % 0.0 in /  0 mm
00:26 2.9 °F /  -16.2 °C 2.0 °F /  -16.7 °C 1018.2 in /  34476.3 hPa NE 7.9 mph /  12.7 km/h 11.9 mph /  19.2 km/h 94 % 0.0 in /  0 mm
00:32 2.8 °F /  -16.2 °C 2.0 °F /  -16.7 °C 1018.2 in /  34476.3 hPa NE 7.6 mph /  12.2 km/h 11.6 mph /  18.7 km/h 94 % 0.0 in /  0 mm
00:51 2.4 °F /  -16.4 °C 2.0 °F /  -16.7 °C 1018.2 in /  34476.3 hPa ENE 7.6 mph /  12.2 km/h 10.5 mph /  16.9 km/h 93 % 0.0 in /  0 mm
01:11 2.2 °F /  -16.6 °C 2.0 °F /  -16.7 °C 1018.2 in /  34476.3 hPa NE 8.7 mph /  14 km/h 10.1 mph /  16.3 km/h 95 % 0.0 in /  0 mm
01:20 2.1 °F /  -16.6 °C 2.0 °F /  -16.7 °C 1018.2 in /  34476.3 hPa NE 7.9 mph /  12.7 km/h 9.7 mph /  15.6 km/h 95 % 0.0 in /  0 mm
01:42 2.0 °F /  -16.7 °C 2.0 °F /  -16.7 °C 1016.8 in /  34428.8 hPa ENE 7.2 mph /  11.6 km/h 9.0 mph /  14.5 km/h 95 % 0.0 in /  0 mm
01:47 1.9 °F /  -16.7 °C 2.0 °F /  -16.7 °C 1016.8 in /  34428.8 hPa East 9.0 mph /  14.5 km/h 9.0 mph /  14.5 km/h 96 % 0.0 in /  0 mm
01:52 1.9 °F /  -16.7 °C 2.0 °F /  -16.7 °C 1016.8 in /  34428.8 hPa Calm   9.3 mph /  15 km/h 96 % 0.0 in /  0 mm
01:58 1.8 °F /  -16.8 °C 1.0 °F /  -17.2 °C 1016.8 in /  34428.8 hPa ENE 8.7 mph /  14 km/h 9.0 mph /  14.5 km/h 96 % 0.0 in /  0 mm
02:11 1.8 °F /  -16.8 °C 1.0 °F /  -17.2 °C 1016.8 in /  34428.8 hPa ENE 8.7 mph /  14 km/h 9.7 mph /  15.6 km/h 97 % 0.0 in /  0 mm
02:17 1.8 °F /  -16.8 °C 1.0 °F /  -17.2 °C 1016.8 in /  34428.8 hPa ENE 7.9 mph /  12.7 km/h 9.7 mph /  15.6 km/h 97 % 0.0 in /  0 mm
02:32 1.8 °F /  -16.8 °C 2.0 °F /  -16.7 °C 1016.8 in /  34428.8 hPa ENE 6.9 mph /  11.1 km/h 10.5 mph /  16.9 km/h 98 % 0.0 in /  0 mm
02:40 1.7 °F /  -16.8 °C 2.0 °F /  -16.7 °C 1016.8 in /  34428.8 hPa NE 7.6 mph /  12.2 km/h 10.5 mph /  16.9 km/h 98 % 0.0 in /  0 mm
02:49 1.6 °F /  -16.9 °C 2.0 °F /  -16.7 °C 1016.8 in /  34428.8 hPa Calm   9.7 mph /  15.6 km/h 98 % 0.0 in /  0 mm
02:55 1.6 °F /  -16.9 °C 2.0 °F /  -16.7 °C 1016.8 in /  34428.8 hPa NE 7.6 mph /  12.2 km/h 8.7 mph /  14 km/h 98 % 0.0 in /  0 mm
03:00 1.5 °F /  -16.9 °C 2.0 °F /  -16.7 °C 1016.8 in /  34428.8 hPa NE 7.6 mph /  12.2 km/h 8.7 mph /  14 km/h 98 % 0.0 in /  0 mm
03:18 1.2 °F /  -17.1 °C 1.0 °F /  -17.2 °C 1016.8 in /  34428.8 hPa NNE 4.0 mph /  6.4 km/h 7.6 mph /  12.2 km/h 98 % 0.0 in /  0 mm
03:23 1.2 °F /  -17.1 °C 1.0 °F /  -17.2 °C 1016.8 in /  34428.8 hPa Calm   9.0 mph /  14.5 km/h 98 % 0.0 in /  0 mm
03:36 1.1 °F /  -17.2 °C 1.0 °F /  -17.2 °C 1016.8 in /  34428.8 hPa NE 4.7 mph /  7.6 km/h 8.7 mph /  14 km/h 98 % 0.0 in /  0 mm
03:44 1.0 °F /  -17.2 °C 1.0 °F /  -17.2 °C 1016.8 in /  34428.8 hPa NE 9.0 mph /  14.5 km/h 9.7 mph /  15.6 km/h 98 % 0.0 in /  0 mm
03:53 1.0 °F /  -17.2 °C 1.0 °F /  -17.2 °C 1016.8 in /  34428.8 hPa NE 7.9 mph /  12.7 km/h 11.1 mph /  17.9 km/h 98 % 0.0 in /  0 mm
03:58 1.0 °F /  -17.2 °C 1.0 °F /  -17.2 °C 1016.1 in /  34405.1 hPa NE 4.0 mph /  6.4 km/h 11.1 mph /  17.9 km/h 98 % 0.0 in /  0 mm
04:16 0.9 °F /  -17.3 °C 1.0 °F /  -17.2 °C 1016.8 in /  34428.8 hPa Calm   9.7 mph /  15.6 km/h 98 % 0.0 in /  0 mm
04:28 0.9 °F /  -17.3 °C 1.0 °F /  -17.2 °C 1016.8 in /  34428.8 hPa Calm   9.0 mph /  14.5 km/h 98 % 0.0 in /  0 mm
04:35 0.9 °F /  -17.3 °C 1.0 °F /  -17.2 °C 1016.8 in /  34428.8 hPa NNW 7.6 mph /  12.2 km/h 10.1 mph /  16.3 km/h 98 % 0.0 in /  0 mm
04:42 0.8 °F /  -17.3 °C 1.0 °F /  -17.2 °C 1016.8 in /  34428.8 hPa NE 7.9 mph /  12.7 km/h 10.1 mph /  16.3 km/h 98 % 0.0 in /  0 mm
04:49 0.8 °F /  -17.3 °C 1.0 °F /  -17.2 °C 1016.8 in /  34428.8 hPa NE 7.9 mph /  12.7 km/h 9.7 mph /  15.6 km/h 98 % 0.0 in /  0 mm
04:57 0.8 °F /  -17.3 °C 1.0 °F /  -17.2 °C 1016.8 in /  34428.8 hPa NE 4.3 mph /  6.9 km/h 9.0 mph /  14.5 km/h 98 % 0.0 in /  0 mm
05:02 0.7 °F /  -17.4 °C 1.0 °F /  -17.2 °C 1016.8 in /  34428.8 hPa NNE 6.4 mph /  10.3 km/h 8.7 mph /  14 km/h 98 % 0.0 in /  0 mm
05:08 0.6 °F /  -17.4 °C 1.0 °F /  -17.2 °C 1016.8 in /  34428.8 hPa NNE 5.5 mph /  8.9 km/h 7.2 mph /  11.6 km/h 98 % 0.0 in /  0 mm
05:13 0.6 °F /  -17.4 °C 1.0 °F /  -17.2 °C 1016.1 in /  34405.1 hPa NE 5.0 mph /  8 km/h 6.4 mph /  10.3 km/h 98 % 0.0 in /  0 mm
05:25 0.5 °F /  -17.5 °C 1.0 °F /  -17.2 °C 1016.1 in /  34405.1 hPa NNE 5.5 mph /  8.9 km/h 5.8 mph /  9.3 km/h 98 % 0.0 in /  0 mm
05:35 0.5 °F /  -17.5 °C 1.0 °F /  -17.2 °C 1018.2 in /  34476.3 hPa NE 1.8 mph /  2.9 km/h 6.4 mph /  10.3 km/h 98 % 0.0 in /  0 mm
05:42 0.6 °F /  -17.4 °C 1.0 °F /  -17.2 °C 1016.8 in /  34428.8 hPa NE 5.8 mph /  9.3 km/h 6.1 mph /  9.8 km/h 98 % 0.0 in /  0 mm
05:48 0.6 °F /  -17.4 °C 1.0 °F /  -17.2 °C 1016.8 in /  34428.8 hPa NNE 5.8 mph /  9.3 km/h 6.1 mph /  9.8 km/h 98 % 0.0 in /  0 mm
05:54 0.5 °F /  -17.5 °C 1.0 °F /  -17.2 °C 1016.8 in /  34428.8 hPa NNE 4.0 mph /  6.4 km/h 6.4 mph /  10.3 km/h 98 % 0.0 in /  0 mm
05:59 0.5 °F /  -17.5 °C 1.0 °F /  -17.2 °C 1016.8 in /  34428.8 hPa NNE 5.8 mph /  9.3 km/h 6.4 mph /  10.3 km/h 98 % 0.0 in /  0 mm
06:06 0.5 °F /  -17.5 °C 1.0 °F /  -17.2 °C 1016.8 in /  34428.8 hPa North 7.2 mph /  11.6 km/h 7.9 mph /  12.7 km/h 98 % 0.0 in /  0 mm
06:11 0.5 °F /  -17.5 °C 1.0 °F /  -17.2 °C 1016.8 in /  34428.8 hPa NE 1.8 mph /  2.9 km/h 9.0 mph /  14.5 km/h 98 % 0.0 in /  0 mm
06:16 0.5 °F /  -17.5 °C 1.0 °F /  -17.2 °C 1016.8 in /  34428.8 hPa NNW 5.8 mph /  9.3 km/h 9.0 mph /  14.5 km/h 98 % 0.0 in /  0 mm
06:25 0.4 °F /  -17.6 °C 1.0 °F /  -17.2 °C 1016.8 in /  34428.8 hPa NNE 4.3 mph /  6.9 km/h 7.2 mph /  11.6 km/h 98 % 0.0 in /  0 mm
06:31 0.4 °F /  -17.6 °C 1.0 °F /  -17.2 °C 1016.8 in /  34428.8 hPa Calm   8.7 mph /  14 km/h 98 % 0.0 in /  0 mm
06:37 0.4 °F /  -17.6 °C 1.0 °F /  -17.2 °C 1016.8 in /  34428.8 hPa NE 6.9 mph /  11.1 km/h 6.9 mph /  11.1 km/h 98 % 0.0 in /  0 mm
06:42 0.4 °F /  -17.6 °C 1.0 °F /  -17.2 °C 1016.8 in /  34428.8 hPa NNE 6.4 mph /  10.3 km/h 6.9 mph /  11.1 km/h 98 % 0.0 in /  0 mm
07:00 0.4 °F /  -17.6 °C 1.0 °F /  -17.2 °C 1016.8 in /  34428.8 hPa Calm   6.4 mph /  10.3 km/h 98 % 0.0 in /  0 mm
07:11 0.4 °F /  -17.6 °C 1.0 °F /  -17.2 °C 1018.2 in /  34476.3 hPa NNE 6.1 mph /  9.8 km/h 6.9 mph /  11.1 km/h 98 % 0.0 in /  0 mm
07:19 0.4 °F /  -17.6 °C 1.0 °F /  -17.2 °C 1018.2 in /  34476.3 hPa North 4.0 mph /  6.4 km/h 6.4 mph /  10.3 km/h 98 % 0.0 in /  0 mm
07:28 0.3 °F /  -17.6 °C 1.0 °F /  -17.2 °C 1016.8 in /  34428.8 hPa Calm   7.6 mph /  12.2 km/h 98 % 0.0 in /  0 mm
07:41 0.4 °F /  -17.6 °C 1.0 °F /  -17.2 °C 1016.8 in /  34428.8 hPa NE 4.7 mph /  7.6 km/h 6.4 mph /  10.3 km/h 98 % 0.0 in /  0 mm
07:46 0.4 °F /  -17.6 °C 1.0 °F /  -17.2 °C 1016.8 in /  34428.8 hPa NNE 4.0 mph /  6.4 km/h 6.1 mph /  9.8 km/h 98 % 0.0 in /  0 mm
07:56 0.4 °F /  -17.6 °C 1.0 °F /  -17.2 °C 1016.8 in /  34428.8 hPa Calm   6.1 mph /  9.8 km/h 98 % 0.0 in /  0 mm
08:11 0.4 °F /  -17.6 °C 1.0 °F /  -17.2 °C 1016.8 in /  34428.8 hPa NNE 5.8 mph /  9.3 km/h 7.2 mph /  11.6 km/h 98 % 0.0 in /  0 mm
08:17 0.4 °F /  -17.6 °C 1.0 °F /  -17.2 °C 1016.8 in /  34428.8 hPa NNE 4.3 mph /  6.9 km/h 7.2 mph /  11.6 km/h 98 % 0.0 in /  0 mm
08:22 0.5 °F /  -17.5 °C 1.0 °F /  -17.2 °C 1016.8 in /  34428.8 hPa North 6.4 mph /  10.3 km/h 9.0 mph /  14.5 km/h 98 % 0.0 in /  0 mm
08:29 0.4 °F /  -17.6 °C 1.0 °F /  -17.2 °C 1016.8 in /  34428.8 hPa NE 4.3 mph /  6.9 km/h 8.7 mph /  14 km/h 98 % 0.0 in /  0 mm
08:39 0.4 °F /  -17.6 °C 1.0 °F /  -17.2 °C 1016.8 in /  34428.8 hPa Calm   5.5 mph /  8.9 km/h 98 % 0.0 in /  0 mm
08:44 0.4 °F /  -17.6 °C 1.0 °F /  -17.2 °C 1016.1 in /  34405.1 hPa Calm   5.5 mph /  8.9 km/h 98 % 0.0 in /  0 mm
08:56 0.4 °F /  -17.6 °C 1.0 °F /  -17.2 °C 1016.8 in /  34428.8 hPa Calm     98 % 0.0 in /  0 mm
09:18 0.7 °F /  -17.4 °C 1.0 °F /  -17.2 °C 1016.8 in /  34428.8 hPa Calm     98 % 0.0 in /  0 mm
09:28 0.8 °F /  -17.3 °C 1.0 °F /  -17.2 °C 1016.8 in /  34428.8 hPa Calm   5.0 mph /  8 km/h 98 % 0.0 in /  0 mm
09:42 1.0 °F /  -17.2 °C 1.0 °F /  -17.2 °C 1016.8 in /  34428.8 hPa Calm   1.4 mph /  2.3 km/h 98 % 0.0 in /  0 mm
09:51 1.0 °F /  -17.2 °C 1.0 °F /  -17.2 °C 1016.8 in /  34428.8 hPa Calm   4.3 mph /  6.9 km/h 98 % 0.0 in /  0 mm
09:56 1.0 °F /  -17.2 °C 1.0 °F /  -17.2 °C 1016.8 in /  34428.8 hPa Calm   6.4 mph /  10.3 km/h 98 % 0.0 in /  0 mm
10:01 1.2 °F /  -17.1 °C 1.0 °F /  -17.2 °C 1016.8 in /  34428.8 hPa Calm   6.4 mph /  10.3 km/h 98 % 0.0 in /  0 mm
10:09 1.2 °F /  -17.1 °C 1.0 °F /  -17.2 °C 1016.8 in /  34428.8 hPa Calm   1.8 mph /  2.9 km/h 98 % 0.0 in /  0 mm
10:20 1.2 °F /  -17.1 °C 1.0 °F /  -17.2 °C 1016.8 in /  34428.8 hPa ENE 4.3 mph /  6.9 km/h 4.7 mph /  7.6 km/h 98 % 0.0 in /  0 mm
10:30 1.2 °F /  -17.1 °C 1.0 °F /  -17.2 °C 1016.8 in /  34428.8 hPa Calm   4.7 mph /  7.6 km/h 98 % 0.0 in /  0 mm
10:50 2.0 °F /  -16.7 °C 2.0 °F /  -16.7 °C 1018.2 in /  34476.3 hPa Calm   5.0 mph /  8 km/h 98 % 0.0 in /  0 mm
10:58 2.0 °F /  -16.7 °C 2.0 °F /  -16.7 °C 1018.2 in /  34476.3 hPa Calm   3.2 mph /  5.1 km/h 98 % 0.0 in /  0 mm
11:12 2.0 °F /  -16.7 °C 2.0 °F /  -16.7 °C 1018.2 in /  34476.3 hPa Calm   5.5 mph /  8.9 km/h 98 % 0.0 in /  0 mm
11:18 2.0 °F /  -16.7 °C 2.0 °F /  -16.7 °C 1018.2 in /  34476.3 hPa Calm   5.0 mph /  8 km/h 98 % 0.0 in /  0 mm
11:27 2.0 °F /  -16.7 °C 2.0 °F /  -16.7 °C 1018.2 in /  34476.3 hPa Calm   5.5 mph /  8.9 km/h 98 % 0.0 in /  0 mm
11:33 2.0 °F /  -16.7 °C 2.0 °F /  -16.7 °C 1018.2 in /  34476.3 hPa East 4.3 mph /  6.9 km/h 4.3 mph /  6.9 km/h 98 % 0.0 in /  0 mm
11:40 2.0 °F /  -16.7 °C 2.0 °F /  -16.7 °C 1018.2 in /  34476.3 hPa East 3.2 mph /  5.1 km/h 6.1 mph /  9.8 km/h 98 % 0.0 in /  0 mm
11:47 2.0 °F /  -16.7 °C 2.0 °F /  -16.7 °C 1018.2 in /  34476.3 hPa Calm   3.2 mph /  5.1 km/h 98 % 0.0 in /  0 mm
11:55 3.8 °F /  -15.7 °C 4.0 °F /  -15.6 °C 1018.2 in /  34476.3 hPa Calm   7.9 mph /  12.7 km/h 98 % 0.0 in /  0 mm
12:00 3.9 °F /  -15.6 °C 4.0 °F /  -15.6 °C 1016.8 in /  34428.8 hPa Calm   7.9 mph /  12.7 km/h 98 % 0.0 in /  0 mm
12:06 4.0 °F /  -15.6 °C 4.0 °F /  -15.6 °C 1016.8 in /  34428.8 hPa ESE 6.9 mph /  11.1 km/h 7.6 mph /  12.2 km/h 98 % 0.0 in /  0 mm
12:21 4.2 °F /  -15.4 °C 4.0 °F /  -15.6 °C 1016.8 in /  34428.8 hPa Calm   9.0 mph /  14.5 km/h 98 % 0.0 in /  0 mm
12:26 4.2 °F /  -15.4 °C 4.0 °F /  -15.6 °C 1018.2 in /  34476.3 hPa ESE 4.7 mph /  7.6 km/h 7.6 mph /  12.2 km/h 98 % 0.0 in /  0 mm
12:34 4.5 °F /  -15.3 °C 4.0 °F /  -15.6 °C 1018.2 in /  34476.3 hPa SE 7.2 mph /  11.6 km/h 9.7 mph /  15.6 km/h 97 % 0.0 in /  0 mm
12:44 4.6 °F /  -15.2 °C 4.0 °F /  -15.6 °C 1016.8 in /  34428.8 hPa Calm   9.7 mph /  15.6 km/h 96 % 0.0 in /  0 mm
12:53 4.8 °F /  -15.1 °C 4.0 °F /  -15.6 °C 1016.8 in /  34428.8 hPa SE 4.3 mph /  6.9 km/h 6.4 mph /  10.3 km/h 96 % 0.0 in /  0 mm
12:59 4.8 °F /  -15.1 °C 4.0 °F /  -15.6 °C 1016.8 in /  34428.8 hPa Calm   8.7 mph /  14 km/h 95 % 0.0 in /  0 mm
13:08 5.0 °F /  -15 °C 5.0 °F /  -15 °C 1016.8 in /  34428.8 hPa SSE 5.0 mph /  8 km/h 5.0 mph /  8 km/h 95 % 0.0 in /  0 mm
13:21 5.2 °F /  -14.9 °C 5.0 °F /  -15 °C 1016.8 in /  34428.8 hPa Calm   7.9 mph /  12.7 km/h 95 % 0.0 in /  0 mm
13:29 5.1 °F /  -14.9 °C 4.0 °F /  -15.6 °C 1016.8 in /  34428.8 hPa Calm   8.7 mph /  14 km/h 93 % 0.0 in /  0 mm
13:48 5.3 °F /  -14.8 °C 4.0 °F /  -15.6 °C 1016.8 in /  34428.8 hPa Calm   6.9 mph /  11.1 km/h 91 % 0.0 in /  0 mm
14:01 5.5 °F /  -14.7 °C 5.0 °F /  -15 °C 1016.8 in /  34428.8 hPa South 4.7 mph /  7.6 km/h 8.7 mph /  14 km/h 91 % 0.0 in /  0 mm
14:07 5.6 °F /  -14.7 °C 4.0 °F /  -15.6 °C 1016.8 in /  34428.8 hPa Calm   9.3 mph /  15 km/h 90 % 0.0 in /  0 mm
14:21 5.5 °F /  -14.7 °C 4.0 °F /  -15.6 °C 1016.8 in /  34428.8 hPa Calm   12.2 mph /  19.6 km/h 88 % 0.0 in /  0 mm
14:32 5.5 °F /  -14.7 °C 4.0 °F /  -15.6 °C 1016.1 in /  34405.1 hPa South 6.1 mph /  9.8 km/h 9.0 mph /  14.5 km/h 88 % 0.0 in /  0 mm
14:55 5.6 °F /  -14.7 °C 4.0 °F /  -15.6 °C 1016.8 in /  34428.8 hPa South 6.1 mph /  9.8 km/h 10.5 mph /  16.9 km/h 87 % 0.0 in /  0 mm
15:00 5.7 °F /  -14.6 °C 4.0 °F /  -15.6 °C 1016.8 in /  34428.8 hPa Calm   10.5 mph /  16.9 km/h 88 % 0.0 in /  0 mm
15:08 6.1 °F /  -14.4 °C 4.0 °F /  -15.6 °C 1016.8 in /  34428.8 hPa SSE 3.5 mph /  5.6 km/h 9.0 mph /  14.5 km/h 87 % 0.0 in /  0 mm
15:14 6.3 °F /  -14.3 °C 4.0 °F /  -15.6 °C 1016.8 in /  34428.8 hPa Calm   6.4 mph /  10.3 km/h 86 % 0.0 in /  0 mm
15:23 6.6 °F /  -14.1 °C 5.0 °F /  -15 °C 1016.8 in /  34428.8 hPa SE 5.5 mph /  8.9 km/h 9.3 mph /  15 km/h 86 % 0.0 in /  0 mm
15:38 6.8 °F /  -14 °C 5.0 °F /  -15 °C 1016.8 in /  34428.8 hPa Calm   4.3 mph /  6.9 km/h 85 % 0.0 in /  0 mm
15:43 6.9 °F /  -13.9 °C 5.0 °F /  -15 °C 1016.8 in /  34428.8 hPa Calm   6.1 mph /  9.8 km/h 85 % 0.0 in /  0 mm
15:56 6.6 °F /  -14.1 °C 4.0 °F /  -15.6 °C 1016.1 in /  34405.1 hPa South 4.7 mph /  7.6 km/h 9.0 mph /  14.5 km/h 83 % 0.0 in /  0 mm
16:03 6.4 °F /  -14.2 °C 4.0 °F /  -15.6 °C 1016.1 in /  34405.1 hPa Calm   9.3 mph /  15 km/h 83 % 0.0 in /  0 mm
16:13 6.2 °F /  -14.3 °C 4.0 °F /  -15.6 °C 1016.1 in /  34405.1 hPa Calm   7.9 mph /  12.7 km/h 83 % 0.0 in /  0 mm
16:21 5.9 °F /  -14.5 °C 4.0 °F /  -15.6 °C 1016.1 in /  34405.1 hPa Calm   5.8 mph /  9.3 km/h 84 % 0.0 in /  0 mm
16:32 5.9 °F /  -14.5 °C 4.0 °F /  -15.6 °C 1016.1 in /  34405.1 hPa Calm   5.8 mph /  9.3 km/h 84 % 0.0 in /  0 mm
16:40 5.9 °F /  -14.5 °C 4.0 °F /  -15.6 °C 1016.1 in /  34405.1 hPa Calm   5.0 mph /  8 km/h 84 % 0.0 in /  0 mm
16:58 5.3 °F /  -14.8 °C 3.0 °F /  -16.1 °C 1016.8 in /  34428.8 hPa South 1.4 mph /  2.3 km/h 4.7 mph /  7.6 km/h 86 % 0.0 in /  0 mm
17:05 4.7 °F /  -15.2 °C 3.0 °F /  -16.1 °C 1016.8 in /  34428.8 hPa Calm   4.7 mph /  7.6 km/h 87 % 0.0 in /  0 mm
17:10 4.7 °F /  -15.2 °C 3.0 °F /  -16.1 °C 1016.8 in /  34428.8 hPa Calm   1.4 mph /  2.3 km/h 87 % 0.0 in /  0 mm
17:16 4.7 °F /  -15.2 °C 3.0 °F /  -16.1 °C 1016.8 in /  34428.8 hPa Calm     87 % 0.0 in /  0 mm
17:29 4.0 °F /  -15.6 °C 2.0 °F /  -16.7 °C 1016.1 in /  34405.1 hPa Calm     88 % 0.0 in /  0 mm
17:39 3.8 °F /  -15.7 °C 2.0 °F /  -16.7 °C 1016.1 in /  34405.1 hPa Calm     89 % 0.0 in /  0 mm
17:45 3.8 °F /  -15.7 °C 2.0 °F /  -16.7 °C 1016.8 in /  34428.8 hPa Calm     90 % 0.0 in /  0 mm
17:50 3.7 °F /  -15.7 °C 2.0 °F /  -16.7 °C 1016.8 in /  34428.8 hPa Calm     90 % 0.0 in /  0 mm
18:07 3.6 °F /  -15.8 °C 3.0 °F /  -16.1 °C 1016.8 in /  34428.8 hPa Calm   6.9 mph /  11.1 km/h 92 % 0.0 in /  0 mm
18:15 3.7 °F /  -15.7 °C 3.0 °F /  -16.1 °C 1016.8 in /  34428.8 hPa Calm   6.4 mph /  10.3 km/h 93 % 0.0 in /  0 mm
18:24 3.8 °F /  -15.7 °C 3.0 °F /  -16.1 °C 1016.8 in /  34428.8 hPa SSW 2.1 mph /  3.4 km/h 5.8 mph /  9.3 km/h 94 % 0.0 in /  0 mm
18:35 4.0 °F /  -15.6 °C 3.0 °F /  -16.1 °C 1016.8 in /  34428.8 hPa Calm   4.3 mph /  6.9 km/h 94 % 0.0 in /  0 mm
18:41 4.1 °F /  -15.5 °C 3.0 °F /  -16.1 °C 1016.8 in /  34428.8 hPa Calm   5.8 mph /  9.3 km/h 94 % 0.0 in /  0 mm
19:06 4.3 °F /  -15.4 °C 3.0 °F /  -16.1 °C 1016.8 in /  34428.8 hPa Calm   5.0 mph /  8 km/h 94 % 0.0 in /  0 mm
19:12 4.4 °F /  -15.3 °C 3.0 °F /  -16.1 °C 1016.8 in /  34428.8 hPa Calm   4.7 mph /  7.6 km/h 94 % 0.0 in /  0 mm
19:27 4.5 °F /  -15.3 °C 4.0 °F /  -15.6 °C 1016.8 in /  34428.8 hPa South 4.7 mph /  7.6 km/h 6.9 mph /  11.1 km/h 94 % 0.0 in /  0 mm
19:33 4.6 °F /  -15.2 °C 4.0 °F /  -15.6 °C 1016.8 in /  34428.8 hPa Calm   6.1 mph /  9.8 km/h 94 % 0.0 in /  0 mm
19:42 4.6 °F /  -15.2 °C 4.0 °F /  -15.6 °C 1016.8 in /  34428.8 hPa Calm   5.0 mph /  8 km/h 94 % 0.0 in /  0 mm
19:56 4.4 °F /  -15.3 °C 3.0 °F /  -16.1 °C 1016.8 in /  34428.8 hPa Calm   6.1 mph /  9.8 km/h 94 % 0.0 in /  0 mm
20:02 4.3 °F /  -15.4 °C 3.0 °F /  -16.1 °C 1016.8 in /  34428.8 hPa Calm   4.3 mph /  6.9 km/h 94 % 0.0 in /  0 mm
20:15 3.7 °F /  -15.7 °C 3.0 °F /  -16.1 °C 1016.1 in /  34405.1 hPa Calm     93 % 0.0 in /  0 mm
20:23 3.3 °F /  -15.9 °C 2.0 °F /  -16.7 °C 1016.1 in /  34405.1 hPa Calm     92 % 0.0 in /  0 mm
20:33 2.9 °F /  -16.2 °C 2.0 °F /  -16.7 °C 1016.8 in /  34428.8 hPa Calm     92 % 0.0 in /  0 mm
20:40 2.7 °F /  -16.3 °C 2.0 °F /  -16.7 °C 1016.8 in /  34428.8 hPa Calm   4.0 mph /  6.4 km/h 93 % 0.0 in /  0 mm
20:52 2.3 °F /  -16.5 °C 2.0 °F /  -16.7 °C 1016.8 in /  34428.8 hPa Calm     93 % 0.0 in /  0 mm
20:59 2.0 °F /  -16.7 °C 1.0 °F /  -17.2 °C 1016.1 in /  34405.1 hPa Calm     93 % 0.0 in /  0 mm
21:07 2.1 °F /  -16.6 °C 1.0 °F /  -17.2 °C 1016.1 in /  34405.1 hPa Calm     94 % 0.0 in /  0 mm
21:15 2.0 °F /  -16.7 °C 2.0 °F /  -16.7 °C 1016.8 in /  34428.8 hPa Calm   4.3 mph /  6.9 km/h 95 % 0.0 in /  0 mm
21:24 1.9 °F /  -16.7 °C 2.0 °F /  -16.7 °C 1016.8 in /  34428.8 hPa South 2.1 mph /  3.4 km/h 6.1 mph /  9.8 km/h 96 % 0.0 in /  0 mm
21:32 1.8 °F /  -16.8 °C 1.0 °F /  -17.2 °C 1016.8 in /  34428.8 hPa Calm   4.7 mph /  7.6 km/h 97 % 0.0 in /  0 mm
21:43 1.7 °F /  -16.8 °C 1.0 °F /  -17.2 °C 1016.8 in /  34428.8 hPa Calm     97 % 0.0 in /  0 mm
21:48 1.6 °F /  -16.9 °C 1.0 °F /  -17.2 °C 1016.8 in /  34428.8 hPa Calm     97 % 0.0 in /  0 mm
21:54 1.6 °F /  -16.9 °C 1.0 °F /  -17.2 °C 1016.8 in /  34428.8 hPa Calm     97 % 0.0 in /  0 mm
22:00 1.5 °F /  -16.9 °C 1.0 °F /  -17.2 °C 1016.1 in /  34405.1 hPa Calm     97 % 0.0 in /  0 mm
22:08 1.6 °F /  -16.9 °C 2.0 °F /  -16.7 °C 1016.1 in /  34405.1 hPa Calm   4.3 mph /  6.9 km/h 98 % 0.0 in /  0 mm
22:26 1.1 °F /  -17.2 °C 1.0 °F /  -17.2 °C 1016.8 in /  34428.8 hPa Calm     97 % 0.0 in /  0 mm
22:31 0.9 °F /  -17.3 °C 1.0 °F /  -17.2 °C 1016.8 in /  34428.8 hPa Calm     98 % 0.0 in /  0 mm
22:39 0.7 °F /  -17.4 °C 1.0 °F /  -17.2 °C 1016.8 in /  34428.8 hPa Calm     98 % 0.0 in /  0 mm
22:44 0.7 °F /  -17.4 °C 1.0 °F /  -17.2 °C 1016.8 in /  34428.8 hPa Calm   4.3 mph /  6.9 km/h 98 % 0.0 in /  0 mm
22:51 0.8 °F /  -17.3 °C 1.0 °F /  -17.2 °C 1016.8 in /  34428.8 hPa Calm   4.7 mph /  7.6 km/h 98 % 0.0 in /  0 mm
23:08 0.8 °F /  -17.3 °C 1.0 °F /  -17.2 °C 1016.8 in /  34428.8 hPa Calm   1.4 mph /  2.3 km/h 98 % 0.0 in /  0 mm
23:17 0.9 °F /  -17.3 °C 1.0 °F /  -17.2 °C 1016.1 in /  34405.1 hPa Calm   4.3 mph /  6.9 km/h 98 % 0.0 in /  0 mm
23:23 1.0 °F /  -17.2 °C 1.0 °F /  -17.2 °C 1016.1 in /  34405.1 hPa Calm     98 % 0.0 in /  0 mm
23:31 1.0 °F /  -17.2 °C 1.0 °F /  -17.2 °C 1016.8 in /  34428.8 hPa West 4.7 mph /  7.6 km/h 6.4 mph /  10.3 km/h 98 % 0.0 in /  0 mm
23:37 1.0 °F /  -17.2 °C 1.0 °F /  -17.2 °C 1016.8 in /  34428.8 hPa Calm   7.6 mph /  12.2 km/h 98 % 0.0 in /  0 mm
23:47 0.9 °F /  -17.3 °C 1.0 °F /  -17.2 °C 1016.8 in /  34428.8 hPa Calm   6.9 mph /  11.1 km/h 98 % 0.0 in /  0 mm
23:57 0.4 °F /  -17.6 °C 1.0 °F /  -17.2 °C 1016.8 in /  34428.8 hPa Calm     98 % 0.0 in /  0 mm
Le Gheer Warneton
Courtoisie de Weather Underground - 1.5 mb

Mise a jour : 22/02/2018 04:18:11
Généré par Cumulus 1.9.4 (1099)